createdAt,value
2023-04-18T00:00:21.185Z,21.05
2023-04-18T00:02:47.901Z,18.25
2023-04-18T00:05:18.144Z,27.95
2023-04-18T00:07:44.556Z,19.08
2023-04-18T00:10:10.908Z,21.13
2023-04-18T00:12:37.312Z,16.83
2023-04-18T00:15:04.454Z,23.13
2023-04-18T00:17:31.747Z,20.25
2023-04-18T00:20:06.864Z,19.05
2023-04-18T00:22:33.648Z,17.55
2023-04-18T00:25:00.061Z,13.85
2023-04-18T00:27:26.779Z,16.52
2023-04-18T00:29:53.052Z,14.77
2023-04-18T00:32:19.748Z,16.05
2023-04-18T00:34:46.289Z,15.75
2023-04-18T00:37:12.751Z,17.42
2023-04-18T00:39:38.957Z,17.67
2023-04-18T00:42:05.322Z,14.00
2023-04-18T00:44:31.911Z,13.15
2023-04-18T00:46:58.395Z,14.65
2023-04-18T00:49:25.767Z,15.95
2023-04-18T00:51:52.438Z,20.23
2023-04-18T00:54:18.991Z,14.75
2023-04-18T00:56:45.757Z,15.48
2023-04-18T00:59:13.260Z,11.82
2023-04-18T01:01:43.473Z,16.63
2023-04-18T01:04:09.936Z,13.82
2023-04-18T01:06:36.932Z,11.70
2023-04-18T01:09:05.196Z,12.60
2023-04-18T01:11:31.687Z,9.10
2023-04-18T01:14:01.679Z,21.33
2023-04-18T01:16:28.919Z,11.27
2023-04-18T01:18:55.604Z,14.73
2023-04-18T01:21:22.237Z,12.23
2023-04-18T01:23:48.832Z,12.40
2023-04-18T01:26:15.394Z,13.50
2023-04-18T01:28:41.637Z,14.15
2023-04-18T01:31:07.896Z,12.35
2023-04-18T01:33:34.161Z,14.05
2023-04-18T01:36:00.524Z,11.25
2023-04-18T01:38:26.778Z,18.52
2023-04-18T01:40:53.010Z,15.77
2023-04-18T01:43:19.287Z,12.88
2023-04-18T01:45:45.527Z,10.70
2023-04-18T01:48:11.820Z,14.88
2023-04-18T01:50:38.076Z,12.23
2023-04-18T01:53:04.375Z,10.63
2023-04-18T01:55:30.673Z,13.18
2023-04-18T01:57:56.922Z,12.32
2023-04-18T02:00:23.251Z,11.38
2023-04-18T02:02:50.450Z,14.48
2023-04-18T02:05:16.781Z,12.00
2023-04-18T02:07:43.128Z,13.45
2023-04-18T02:10:10.278Z,9.63
2023-04-18T02:12:36.658Z,10.05
2023-04-18T02:15:03.156Z,10.45
2023-04-18T02:17:30.333Z,15.95
2023-04-18T02:19:56.583Z,11.23
2023-04-18T02:22:22.859Z,14.65
2023-04-18T02:24:49.111Z,14.43
2023-04-18T02:27:15.337Z,12.38
2023-04-18T02:29:41.626Z,16.63
2023-04-18T02:32:08.235Z,14.45
2023-04-18T02:34:35.869Z,10.57
2023-04-18T02:37:02.092Z,12.10
2023-04-18T02:39:28.441Z,12.18
2023-04-18T02:41:54.702Z,13.10
2023-04-18T02:44:20.912Z,15.05
2023-04-18T02:46:47.200Z,11.13
2023-04-18T02:49:13.429Z,15.48
2023-04-18T02:51:39.709Z,11.52
2023-04-18T02:54:06.047Z,10.70
2023-04-18T02:56:32.389Z,13.10
2023-04-18T02:58:58.686Z,13.00
2023-04-18T03:01:24.990Z,19.58
2023-04-18T03:03:51.436Z,13.95
2023-04-18T03:06:17.945Z,10.18
2023-04-18T03:08:44.446Z,21.75
2023-04-18T03:11:10.706Z,12.68
2023-04-18T03:13:37.017Z,8.77
2023-04-18T03:16:03.473Z,12.52
2023-04-18T03:18:29.820Z,12.77
2023-04-18T03:20:56.055Z,21.13
2023-04-18T03:23:22.361Z,13.77
2023-04-18T03:25:48.648Z,16.48
2023-04-18T03:28:14.914Z,18.85
2023-04-18T03:30:42.605Z,11.90
2023-04-18T03:33:08.918Z,12.05
2023-04-18T03:35:35.320Z,15.52
2023-04-18T03:38:01.609Z,15.48
2023-04-18T03:40:28.088Z,20.88
2023-04-18T03:42:54.330Z,11.68
2023-04-18T03:45:20.705Z,12.63
2023-04-18T03:47:47.049Z,18.73
2023-04-18T03:50:13.396Z,15.13
2023-04-18T03:52:39.700Z,12.55
2023-04-18T03:55:06.472Z,12.25
2023-04-18T03:57:32.819Z,13.40
2023-04-18T03:59:59.258Z,14.82
2023-04-18T04:02:25.749Z,18.13
2023-04-18T04:04:52.560Z,14.82
2023-04-18T04:07:18.969Z,20.60
2023-04-18T04:09:45.322Z,12.80
2023-04-18T04:12:11.567Z,13.93
2023-04-18T04:14:37.881Z,14.70
2023-04-18T04:17:04.243Z,16.55
2023-04-18T04:19:30.507Z,17.10
2023-04-18T04:21:56.767Z,20.40
2023-04-18T04:24:23.052Z,18.58
2023-04-18T04:26:50.689Z,15.25
2023-04-18T04:29:17.696Z,12.60
2023-04-18T04:31:44.129Z,15.73
2023-04-18T04:34:10.413Z,16.63
2023-04-18T04:36:36.768Z,13.75
2023-04-18T04:39:05.804Z,14.45
2023-04-18T04:41:32.116Z,17.80
2023-04-18T04:43:59.498Z,17.40
2023-04-18T04:46:29.371Z,21.38
2023-04-18T04:48:55.592Z,16.93
2023-04-18T04:51:21.832Z,17.33
2023-04-18T04:53:48.073Z,13.23
2023-04-18T04:56:14.423Z,14.82
2023-04-18T04:58:40.708Z,22.20
2023-04-18T05:01:09.738Z,14.70
2023-04-18T05:03:38.965Z,13.30
2023-04-18T05:06:05.626Z,13.63
2023-04-18T05:08:31.926Z,20.25
2023-04-18T05:10:58.233Z,15.98
2023-04-18T05:13:24.476Z,15.73
2023-04-18T05:15:51.961Z,19.70
2023-04-18T05:18:18.293Z,15.55
2023-04-18T05:20:44.578Z,14.15
2023-04-18T05:23:10.865Z,19.02
2023-04-18T05:25:37.210Z,19.75
2023-04-18T05:28:08.211Z,17.05
2023-04-18T05:30:34.596Z,16.83
2023-04-18T05:33:00.912Z,19.67
2023-04-18T05:35:27.724Z,19.48
2023-04-18T05:37:54.001Z,22.42
2023-04-18T05:40:20.380Z,20.42
2023-04-18T05:42:46.709Z,19.63
2023-04-18T05:45:13.057Z,19.02
2023-04-18T05:47:39.336Z,15.50
2023-04-18T05:50:06.301Z,19.60
2023-04-18T05:52:32.711Z,15.70
2023-04-18T05:54:58.982Z,15.00
2023-04-18T05:57:25.386Z,16.17
2023-04-18T05:59:51.741Z,28.83
2023-04-18T06:02:18.063Z,15.70
2023-04-18T06:04:45.010Z,18.05
2023-04-18T06:07:11.736Z,19.70
2023-04-18T06:09:38.134Z,16.05
2023-04-18T06:12:04.478Z,19.98
2023-04-18T06:14:30.875Z,14.73
2023-04-18T06:16:57.327Z,14.70
2023-04-18T06:19:23.709Z,17.58
2023-04-18T06:21:50.714Z,16.33
2023-04-18T06:24:17.150Z,14.43
2023-04-18T06:26:43.550Z,20.70
2023-04-18T06:29:09.821Z,28.42
2023-04-18T06:31:36.165Z,16.20
2023-04-18T06:34:02.523Z,16.42
2023-04-18T06:36:28.859Z,17.98
2023-04-18T06:38:55.125Z,14.25
2023-04-18T06:41:21.446Z,12.38
2023-04-18T06:44:02.255Z,14.40
2023-04-18T06:46:30.475Z,15.70
2023-04-18T06:48:56.842Z,18.02
2023-04-18T06:51:23.179Z,25.38
2023-04-18T06:53:52.617Z,19.60
2023-04-18T06:56:20.488Z,16.52
2023-04-18T06:58:47.277Z,16.42
2023-04-18T07:01:13.551Z,15.57
2023-04-18T07:03:39.968Z,16.90
2023-04-18T07:06:08.695Z,13.57
2023-04-18T07:08:35.297Z,17.02
2023-04-18T07:11:01.811Z,17.92
2023-04-18T07:13:28.094Z,13.82
2023-04-18T07:15:54.370Z,12.18
2023-04-18T07:18:30.214Z,12.77
2023-04-18T07:21:01.711Z,15.88
2023-04-18T07:23:27.982Z,14.88
2023-04-18T07:25:54.316Z,16.95
2023-04-18T07:28:21.076Z,12.80
2023-04-18T07:30:48.326Z,11.20
2023-04-18T07:33:14.640Z,13.75
2023-04-18T07:35:40.924Z,13.60
2023-04-18T07:38:07.269Z,19.90
2023-04-18T07:40:33.571Z,14.25
2023-04-18T07:42:59.970Z,15.52
2023-04-18T07:45:26.283Z,13.65
2023-04-18T07:47:52.682Z,13.93
2023-04-18T07:50:19.065Z,17.23
2023-04-18T07:52:48.014Z,14.15
2023-04-18T07:55:14.742Z,17.08
2023-04-18T07:57:42.702Z,13.32
2023-04-18T08:00:09.433Z,19.15
2023-04-18T08:02:35.995Z,13.48
2023-04-18T08:05:02.414Z,11.63
2023-04-18T08:07:28.809Z,10.75
2023-04-18T08:09:55.072Z,10.02
2023-04-18T08:12:21.344Z,11.00
2023-04-18T08:14:47.654Z,10.93
2023-04-18T08:17:13.994Z,10.95
2023-04-18T08:19:40.326Z,9.88
2023-04-18T08:22:07.630Z,12.50
2023-04-18T08:24:33.916Z,11.63
2023-04-18T08:27:00.212Z,10.57
2023-04-18T08:29:27.172Z,8.75
2023-04-18T08:31:53.433Z,10.65
2023-04-18T08:34:19.765Z,10.43
2023-04-18T08:36:46.210Z,10.65
2023-04-18T08:39:12.744Z,16.08
2023-04-18T08:41:41.641Z,7.68
2023-04-18T08:44:08.075Z,8.55
2023-04-18T08:46:37.118Z,8.50
2023-04-18T08:49:06.297Z,10.00
2023-04-18T08:51:32.934Z,9.27
2023-04-18T08:54:02.695Z,10.63
2023-04-18T08:56:29.204Z,8.37
2023-04-18T08:58:56.431Z,8.25
2023-04-18T09:01:22.979Z,9.35
2023-04-18T09:03:50.345Z,9.52
2023-04-18T09:06:18.874Z,8.43
2023-04-18T09:08:57.209Z,8.70
2023-04-18T09:11:25.779Z,8.40
2023-04-18T09:13:53.056Z,8.48
2023-04-18T09:16:20.738Z,6.82
2023-04-18T09:19:06.918Z,5.97
2023-04-18T09:21:33.253Z,5.80
2023-04-18T09:24:15.313Z,8.70
2023-04-18T09:26:41.596Z,6.53
2023-04-18T09:29:07.908Z,10.50
2023-04-18T09:31:35.701Z,7.22
2023-04-18T09:34:03.137Z,6.40
2023-04-18T09:36:31.116Z,7.10
2023-04-18T09:38:57.583Z,6.05
2023-04-18T09:41:24.044Z,7.93
2023-04-18T09:43:50.589Z,6.72
2023-04-18T09:46:21.573Z,9.23
2023-04-18T09:48:47.968Z,9.13
2023-04-18T09:51:15.655Z,8.10
2023-04-18T09:53:44.513Z,8.40
2023-04-18T09:56:29.930Z,6.95
2023-04-18T09:59:00.931Z,6.65
2023-04-18T10:01:28.184Z,7.70
2023-04-18T10:03:55.656Z,5.03
2023-04-18T10:06:22.220Z,5.28
2023-04-18T10:08:49.006Z,7.28
2023-04-18T10:11:15.648Z,6.75
2023-04-18T10:13:43.155Z,8.25
2023-04-18T10:16:10.279Z,7.38
2023-04-18T10:18:36.783Z,7.05
2023-04-18T10:21:03.787Z,5.93
2023-04-18T10:23:36.271Z,7.75
2023-04-18T10:26:03.429Z,7.10
2023-04-18T10:28:48.350Z,5.35
2023-04-18T10:31:16.046Z,8.52
2023-04-18T10:34:00.718Z,5.18
2023-04-18T10:36:30.817Z,4.60
2023-04-18T10:39:02.823Z,5.82
2023-04-18T10:41:30.178Z,5.20
2023-04-18T10:44:11.426Z,6.60
2023-04-18T10:46:39.230Z,8.35
2023-04-18T10:49:17.482Z,6.65
2023-04-18T10:51:44.535Z,6.80
2023-04-18T10:54:11.938Z,6.80
2023-04-18T10:56:39.344Z,4.40
2023-04-18T10:59:05.659Z,4.80
2023-04-18T11:01:33.181Z,7.07
2023-04-18T11:04:00.187Z,6.75
2023-04-18T11:06:27.666Z,5.70
2023-04-18T11:09:13.533Z,6.75
2023-04-18T11:11:40.400Z,6.68
2023-04-18T11:14:06.729Z,9.50
2023-04-18T11:16:33.827Z,6.18
2023-04-18T11:19:00.438Z,8.75
2023-04-18T11:21:30.263Z,6.28
2023-04-18T11:23:57.015Z,7.40
2023-04-18T11:26:26.690Z,8.60
2023-04-18T11:28:58.972Z,8.13
2023-04-18T11:31:25.444Z,8.43
2023-04-18T11:33:52.175Z,6.15
2023-04-18T11:36:18.518Z,9.80
2023-04-18T11:38:44.830Z,7.68
2023-04-18T11:41:14.546Z,8.05
2023-04-18T11:43:44.777Z,8.80
2023-04-18T11:46:11.666Z,7.63
2023-04-18T11:48:38.727Z,9.82
2023-04-18T11:51:05.527Z,9.25
2023-04-18T11:53:35.668Z,11.25
2023-04-18T11:56:03.576Z,11.13
2023-04-18T11:58:31.670Z,9.43
2023-04-18T12:00:58.110Z,9.60
2023-04-18T12:03:24.752Z,11.23
2023-04-18T12:05:58.640Z,9.90
2023-04-18T12:08:25.488Z,14.10
2023-04-18T12:10:52.480Z,9.07
2023-04-18T12:13:23.534Z,10.65
2023-04-18T12:15:49.854Z,11.10
2023-04-18T12:18:17.971Z,9.57
2023-04-18T12:20:50.412Z,11.52
2023-04-18T12:23:35.695Z,10.40
2023-04-18T12:26:06.134Z,10.15
2023-04-18T12:28:33.108Z,11.40
2023-04-18T12:30:59.684Z,12.50
2023-04-18T12:33:26.788Z,13.00
2023-04-18T12:35:53.258Z,13.98
2023-04-18T12:38:21.375Z,12.15
2023-04-18T12:40:47.682Z,13.63
2023-04-18T12:43:13.979Z,11.07
2023-04-18T12:45:40.214Z,11.10
2023-04-18T12:48:06.947Z,12.90
2023-04-18T12:50:33.328Z,15.23
2023-04-18T12:53:00.452Z,18.98
2023-04-18T12:55:27.049Z,10.85
2023-04-18T12:57:58.012Z,10.93
2023-04-18T13:00:25.951Z,12.63
2023-04-18T13:02:52.903Z,12.95
2023-04-18T13:05:20.308Z,11.13
2023-04-18T13:07:48.944Z,13.30
2023-04-18T13:10:19.344Z,13.30
2023-04-18T13:12:46.219Z,11.07
2023-04-18T13:15:12.815Z,12.32
2023-04-18T13:17:39.518Z,19.95
2023-04-18T13:20:07.123Z,12.13
2023-04-18T13:22:33.874Z,12.18
2023-04-18T13:25:00.226Z,12.27
2023-04-18T13:27:26.604Z,12.20
2023-04-18T13:29:52.990Z,12.80
2023-04-18T13:32:19.236Z,14.82
2023-04-18T13:34:46.164Z,20.20
2023-04-18T13:37:12.787Z,18.73
2023-04-18T13:39:39.153Z,13.68
2023-04-18T13:42:07.408Z,15.32
2023-04-18T13:44:35.127Z,15.02
2023-04-18T13:47:02.029Z,14.65
2023-04-18T13:49:28.276Z,20.45
2023-04-18T13:51:57.092Z,13.80
2023-04-18T13:54:27.034Z,17.63
2023-04-18T13:56:53.687Z,17.17
2023-04-18T13:59:19.997Z,16.10
2023-04-18T14:01:46.541Z,18.27
2023-04-18T14:04:12.941Z,15.88
2023-04-18T14:06:39.328Z,15.98
2023-04-18T14:09:06.819Z,15.20
2023-04-18T14:11:33.765Z,18.85
2023-04-18T14:14:00.195Z,15.77
2023-04-18T14:16:26.557Z,17.73
2023-04-18T14:18:53.839Z,15.38
2023-04-18T14:21:20.192Z,16.08
2023-04-18T14:23:46.430Z,13.50
2023-04-18T14:26:12.841Z,15.15
2023-04-18T14:28:39.129Z,30.88
2023-04-18T14:31:06.584Z,15.10
2023-04-18T14:33:34.052Z,19.20
2023-04-18T14:36:01.682Z,16.60
2023-04-18T14:38:27.929Z,12.45
2023-04-18T14:40:54.762Z,15.57
2023-04-18T14:43:21.104Z,16.55
2023-04-18T14:45:47.394Z,14.57
2023-04-18T14:48:13.765Z,15.20
2023-04-18T14:50:40.236Z,18.02
2023-04-18T14:53:06.546Z,10.70
2023-04-18T14:55:34.231Z,12.93
2023-04-18T14:58:00.867Z,16.45
2023-04-18T15:00:27.217Z,14.20
2023-04-18T15:02:53.648Z,12.68
2023-04-18T15:05:23.577Z,12.85
2023-04-18T15:07:51.711Z,13.23
2023-04-18T15:10:18.726Z,16.67
2023-04-18T15:12:46.773Z,13.88
2023-04-18T15:15:13.544Z,12.98
2023-04-18T15:17:39.824Z,21.65
2023-04-18T15:20:07.205Z,13.38
2023-04-18T15:22:33.944Z,16.30
2023-04-18T15:25:00.417Z,11.85
2023-04-18T15:27:26.725Z,14.15
2023-04-18T15:29:53.199Z,11.82
2023-04-18T15:32:19.551Z,11.88
2023-04-18T15:34:45.936Z,12.95
2023-04-18T15:37:12.221Z,16.58
2023-04-18T15:39:39.046Z,11.68
2023-04-18T15:42:05.535Z,13.40
2023-04-18T15:44:31.831Z,12.68
2023-04-18T15:47:00.458Z,11.65
2023-04-18T15:49:27.985Z,11.50
2023-04-18T15:51:54.471Z,15.55
2023-04-18T15:54:20.826Z,12.77
2023-04-18T15:56:47.050Z,10.88
2023-04-18T15:59:13.536Z,13.15
2023-04-18T16:01:39.952Z,13.20
2023-04-18T16:04:06.424Z,12.55
2023-04-18T16:06:33.593Z,11.40
2023-04-18T16:08:59.924Z,15.27
2023-04-18T16:11:26.430Z,16.65
2023-04-18T16:13:54.197Z,13.95
2023-04-18T16:16:20.547Z,12.93
2023-04-18T16:18:46.923Z,13.20
2023-04-18T16:21:16.185Z,11.52
2023-04-18T16:23:42.875Z,10.13
2023-04-18T16:26:09.247Z,11.38
2023-04-18T16:28:38.298Z,9.45
2023-04-18T16:31:05.886Z,10.32
2023-04-18T16:33:32.446Z,10.18
2023-04-18T16:36:00.014Z,16.20
2023-04-18T16:38:27.336Z,16.38
2023-04-18T16:41:01.467Z,12.77
2023-04-18T16:43:28.256Z,15.85
2023-04-18T16:45:57.610Z,10.52
2023-04-18T16:48:24.415Z,8.82
2023-04-18T16:50:50.726Z,10.18
2023-04-18T16:53:17.289Z,11.65
2023-04-18T16:55:43.536Z,12.10
2023-04-18T16:58:09.896Z,9.35
2023-04-18T17:00:38.258Z,9.88
2023-04-18T17:03:07.274Z,11.85
2023-04-18T17:05:33.732Z,11.43
2023-04-18T17:08:00.337Z,11.68
2023-04-18T17:10:28.518Z,13.38
2023-04-18T17:12:54.798Z,13.90
2023-04-18T17:15:21.133Z,15.15
2023-04-18T17:17:47.484Z,14.10
2023-04-18T17:20:14.035Z,12.13
2023-04-18T17:22:41.098Z,10.38
2023-04-18T17:25:07.939Z,12.27
2023-04-18T17:27:34.162Z,10.75
2023-04-18T17:30:00.516Z,11.90
2023-04-18T17:32:26.805Z,11.50
2023-04-18T17:34:53.784Z,9.93
2023-04-18T17:37:22.267Z,8.32
2023-04-18T17:39:48.875Z,16.60
2023-04-18T17:42:15.195Z,12.30
2023-04-18T17:44:41.601Z,15.25
2023-04-18T17:47:08.134Z,12.68
2023-04-18T17:49:34.975Z,17.45
2023-04-18T17:52:01.702Z,14.65
2023-04-18T17:54:28.073Z,14.95
2023-04-18T17:56:54.365Z,19.42
2023-04-18T17:59:20.609Z,12.65
2023-04-18T18:01:47.023Z,13.43
2023-04-18T18:04:13.797Z,9.70
2023-04-18T18:06:41.932Z,10.65
2023-04-18T18:09:08.215Z,15.60
2023-04-18T18:11:34.804Z,10.57
2023-04-18T18:14:01.331Z,9.15
2023-04-18T18:16:27.577Z,12.90
2023-04-18T18:18:54.065Z,13.45
2023-04-18T18:21:20.394Z,10.00
2023-04-18T18:23:46.700Z,11.52
2023-04-18T18:26:13.017Z,11.85
2023-04-18T18:28:39.505Z,12.48
2023-04-18T18:31:05.864Z,13.32
2023-04-18T18:33:32.100Z,11.52
2023-04-18T18:35:58.702Z,14.85
2023-04-18T18:38:25.017Z,13.68
2023-04-18T18:40:51.750Z,10.55
2023-04-18T18:43:17.982Z,14.23
2023-04-18T18:45:44.226Z,14.80
2023-04-18T18:48:10.634Z,16.48
2023-04-18T18:50:36.987Z,11.27
2023-04-18T18:53:03.365Z,12.38
2023-04-18T18:55:29.822Z,11.65
2023-04-18T18:57:56.207Z,11.05
2023-04-18T19:00:22.621Z,15.23
2023-04-18T19:02:48.995Z,24.05
2023-04-18T19:05:16.868Z,10.88
2023-04-18T19:07:43.249Z,12.35
2023-04-18T19:10:09.903Z,14.10
2023-04-18T19:12:37.036Z,17.88
2023-04-18T19:15:03.513Z,16.67
2023-04-18T19:17:30.909Z,10.80
2023-04-18T19:19:59.149Z,11.27
2023-04-18T19:22:25.554Z,12.63
2023-04-18T19:24:52.003Z,21.23
2023-04-18T19:27:18.498Z,9.73
2023-04-18T19:29:44.794Z,13.20
2023-04-18T19:32:11.126Z,13.23
2023-04-18T19:34:37.945Z,17.02
2023-04-18T19:37:04.495Z,9.13
2023-04-18T19:39:31.009Z,12.27
2023-04-18T19:41:57.263Z,11.10
2023-04-18T19:44:23.520Z,9.50
2023-04-18T19:46:49.790Z,8.60
2023-04-18T19:49:16.419Z,9.85
2023-04-18T19:51:42.940Z,12.05
2023-04-18T19:54:09.387Z,15.65
2023-04-18T19:56:35.654Z,6.88
2023-04-18T19:59:02.352Z,11.93
2023-04-18T20:01:29.418Z,12.73
2023-04-18T20:03:58.441Z,9.32
2023-04-18T20:06:26.657Z,9.80
2023-04-18T20:08:55.782Z,19.30
2023-04-18T20:11:22.218Z,7.80
2023-04-18T20:13:48.944Z,13.02
2023-04-18T20:16:16.752Z,12.95
2023-04-18T20:18:44.242Z,9.02
2023-04-18T20:21:11.053Z,10.05
2023-04-18T20:23:37.539Z,13.52
2023-04-18T20:26:04.361Z,8.88
2023-04-18T20:28:31.447Z,12.10
2023-04-18T20:30:57.737Z,8.52
2023-04-18T20:33:23.979Z,8.45
2023-04-18T20:35:50.252Z,9.15
2023-04-18T20:38:16.493Z,8.80
2023-04-18T20:40:44.787Z,8.85
2023-04-18T20:43:11.178Z,9.13
2023-04-18T20:45:37.553Z,7.13
2023-04-18T20:48:04.077Z,10.73
2023-04-18T20:50:30.654Z,9.57
2023-04-18T20:52:56.892Z,13.35
2023-04-18T20:55:23.127Z,7.53
2023-04-18T20:57:49.430Z,10.60
2023-04-18T21:00:15.924Z,11.48
2023-04-18T21:02:43.523Z,11.32
2023-04-18T21:05:10.043Z,11.48
2023-04-18T21:07:36.361Z,7.70
2023-04-18T21:10:03.467Z,9.15
2023-04-18T21:12:29.769Z,9.35
2023-04-18T21:14:56.289Z,9.00
2023-04-18T21:17:22.617Z,9.13
2023-04-18T21:19:49.462Z,8.48
2023-04-18T21:22:16.011Z,7.35
2023-04-18T21:24:42.660Z,9.02
2023-04-18T21:27:10.527Z,9.82
2023-04-18T21:29:36.817Z,8.30
2023-04-18T21:32:03.168Z,9.48
2023-04-18T21:34:29.470Z,12.73
2023-04-18T21:36:55.771Z,9.40
2023-04-18T21:39:22.083Z,8.05
2023-04-18T21:41:48.303Z,9.75
2023-04-18T21:44:14.799Z,10.15
2023-04-18T21:46:41.190Z,7.95
2023-04-18T21:49:07.448Z,10.93
2023-04-18T21:51:33.683Z,9.02
2023-04-18T21:54:00.003Z,7.45
2023-04-18T21:56:26.758Z,10.57
2023-04-18T21:58:53.089Z,17.80
2023-04-18T22:01:19.431Z,10.50
2023-04-18T22:03:46.096Z,11.32
2023-04-18T22:06:12.495Z,10.40
2023-04-18T22:08:38.761Z,9.32
2023-04-18T22:11:05.177Z,11.55
2023-04-18T22:13:34.125Z,10.20
2023-04-18T22:16:03.879Z,10.80
2023-04-18T22:18:33.547Z,12.80
2023-04-18T22:21:01.172Z,8.88
2023-04-18T22:23:27.833Z,9.45
2023-04-18T22:25:54.117Z,10.52
2023-04-18T22:28:20.592Z,15.95
2023-04-18T22:30:46.921Z,16.05
2023-04-18T22:33:13.185Z,8.65
2023-04-18T22:35:39.464Z,9.05
2023-04-18T22:38:06.114Z,9.27
2023-04-18T22:40:32.529Z,9.77
2023-04-18T22:42:58.787Z,11.27
2023-04-18T22:45:25.224Z,8.68
2023-04-18T22:47:51.615Z,8.63
2023-04-18T22:50:18.035Z,10.77
2023-04-18T22:52:44.465Z,11.15
2023-04-18T22:55:10.830Z,9.13
2023-04-18T22:57:38.024Z,10.88
2023-04-18T23:00:06.327Z,9.00
2023-04-18T23:02:32.706Z,7.85
2023-04-18T23:04:59.712Z,9.60
2023-04-18T23:07:26.029Z,10.43
2023-04-18T23:09:52.344Z,8.95
2023-04-18T23:12:18.666Z,8.15
2023-04-18T23:14:44.951Z,11.15
2023-04-18T23:17:11.250Z,14.38
2023-04-18T23:19:37.529Z,12.30
2023-04-18T23:22:03.795Z,11.35
2023-04-18T23:24:30.577Z,13.52
2023-04-18T23:26:57.675Z,12.05
2023-04-18T23:29:23.944Z,10.90
2023-04-18T23:31:50.314Z,10.82
2023-04-18T23:34:16.901Z,10.07
2023-04-18T23:36:43.328Z,10.15
2023-04-18T23:39:09.568Z,8.27
2023-04-18T23:41:35.913Z,10.57
2023-04-18T23:44:02.237Z,16.05
2023-04-18T23:46:28.647Z,14.10
2023-04-18T23:48:55.024Z,8.70
2023-04-18T23:51:21.329Z,13.20
2023-04-18T23:53:47.617Z,14.43
2023-04-18T23:56:13.914Z,13.45
2023-04-18T23:58:40.240Z,13.20
